Airfield :
LOGIN :

Register | Disclaimer

   EN    FR    IT 

 










Legend :    VFR   Marginal VFR   IFR   Intensive IFR   Very Intensive IFR
Visi :
Ceiling :
>= 8 km
>= 3000ft
5 to 8 km
1000 to 3000 ft
1500m to 5 km
500 to 1000 ft
800 to 1500m
200 to 500 ft
< 800m
< 200 ft
Symbols :   Thunderstorms  Fog  Heavy snow  Heavy precipitations  Wind > 20 kt
SIGMETs :     Misc.  Thunderstorms  Icing  Turbulence  Mountain Waves  Volcanic Ashes







- Airport Elevation : 779 ft
- IATA code : CMF
- Download approach charts


LFLB - Chambery / Aix-Les-Bains

CURRENT METAR :
  • 241330Z AUTO 35004KT 310V020 CAVOK 23/13 Q1019 NOSIG

EXPIRED METARs :
  • 241300Z AUTO 34004KT 300V010 CAVOK 22/13 Q1019 NOSIG
  • 241230Z AUTO 01004KT 330V070 CAVOK 22/13 Q1019 NOSIG
  • 241200Z AUTO 35005KT CAVOK 21/14 Q1020 NOSIG
  • 241130Z AUTO 36005KT CAVOK 20/13 Q1020 NOSIG
  • 241100Z AUTO 35004KT CAVOK 19/14 Q1020 NOSIG

TAF TAF LFLB
Valid from the 24 at 12:00 until the 25 at 12:00 UTC


241100Z 2412/2512 35012KT CAVOK
BECMG 2416/2418 VRB02KT
No reported NOTAMs for that airfield.



MET'MAP, your aeronautical weather chart ! - Copyright ORBIFLY December 2007 - Disclaimer

ORBIFLY MET'MAP TEAM :

Programming & Development : Alexandra Zaïnal
Concept & Development : Baudouin d'Aumeries
Co-Development & Prog : Marc-Olivier Méhu
Technical & hardware support : Manuel Goepfert

Contact : metmap@orbifly.com




SOURCES & CREDITS :

   NOAA